sensor_id;sensor_type;location;lat;lon;timestamp;pressure;altitude;pressure_sealevel;temperature;humidity
27429;BME280;14881;48.092;11.574;2023-04-05T00:01:07;95864.50;;;-4.71;100.00
27429;BME280;14881;48.092;11.574;2023-04-05T00:03:37;95859.13;;;-4.78;100.00
27429;BME280;14881;48.092;11.574;2023-04-05T00:06:06;95862.78;;;-4.79;100.00
27429;BME280;14881;48.092;11.574;2023-04-05T00:08:35;95848.06;;;-4.81;100.00
27429;BME280;14881;48.092;11.574;2023-04-05T00:11:03;95856.13;;;-4.89;100.00
27429;BME280;14881;48.092;11.574;2023-04-05T00:13:31;95857.59;;;-4.87;100.00
27429;BME280;14881;48.092;11.574;2023-04-05T00:15:59;95859.34;;;-4.94;100.00
27429;BME280;14881;48.092;11.574;2023-04-05T00:18:27;95855.97;;;-5.03;100.00
27429;BME280;14881;48.092;11.574;2023-04-05T00:21:00;95841.78;;;-4.95;100.00
27429;BME280;14881;48.092;11.574;2023-04-05T00:23:27;95848.28;;;-4.98;100.00
27429;BME280;14881;48.092;11.574;2023-04-05T00:26:06;95852.75;;;-4.98;100.00
27429;BME280;14881;48.092;11.574;2023-04-05T00:28:34;95857.41;;;-5.00;100.00
27429;BME280;14881;48.092;11.574;2023-04-05T00:31:02;95848.28;;;-4.98;100.00
27429;BME280;14881;48.092;11.574;2023-04-05T00:33:30;95847.00;;;-5.02;100.00
27429;BME280;14881;48.092;11.574;2023-04-05T00:36:07;95848.41;;;-5.06;100.00
27429;BME280;14881;48.092;11.574;2023-04-05T00:38:35;95847.94;;;-5.09;100.00
27429;BME280;14881;48.092;11.574;2023-04-05T00:41:02;95842.28;;;-5.06;100.00
27429;BME280;14881;48.092;11.574;2023-04-05T00:43:32;95837.16;;;-5.08;100.00
27429;BME280;14881;48.092;11.574;2023-04-05T00:46:00;95837.81;;;-5.06;100.00
27429;BME280;14881;48.092;11.574;2023-04-05T00:48:28;95841.63;;;-5.08;100.00
27429;BME280;14881;48.092;11.574;2023-04-05T00:50:56;95843.19;;;-5.14;100.00
27429;BME280;14881;48.092;11.574;2023-04-05T00:53:25;95832.13;;;-5.17;100.00
27429;BME280;14881;48.092;11.574;2023-04-05T00:55:54;95834.16;;;-5.19;100.00
27429;BME280;14881;48.092;11.574;2023-04-05T00:58:22;95831.72;;;-5.21;100.00
27429;BME280;14881;48.092;11.574;2023-04-05T01:00:59;95823.47;;;-5.26;100.00
27429;BME280;14881;48.092;11.574;2023-04-05T01:03:31;95831.31;;;-5.33;100.00
27429;BME280;14881;48.092;11.574;2023-04-05T01:06:11;95824.84;;;-5.30;100.00
27429;BME280;14881;48.092;11.574;2023-04-05T01:08:50;95819.84;;;-5.40;100.00
27429;BME280;14881;48.092;11.574;2023-04-05T01:11:19;95810.91;;;-5.39;100.00
27429;BME280;14881;48.092;11.574;2023-04-05T01:13:48;95824.13;;;-5.39;100.00
27429;BME280;14881;48.092;11.574;2023-04-05T01:16:17;95815.19;;;-5.38;100.00
27429;BME280;14881;48.092;11.574;2023-04-05T01:18:45;95810.09;;;-5.39;100.00
27429;BME280;14881;48.092;11.574;2023-04-05T01:21:32;95807.63;;;-5.41;100.00
27429;BME280;14881;48.092;11.574;2023-04-05T01:24:15;95804.16;;;-5.41;100.00
27429;BME280;14881;48.092;11.574;2023-04-05T01:26:56;95800.84;;;-5.43;100.00
27429;BME280;14881;48.092;11.574;2023-04-05T01:30:04;95801.13;;;-5.53;100.00
27429;BME280;14881;48.092;11.574;2023-04-05T01:32:38;95802.13;;;-5.54;100.00
27429;BME280;14881;48.092;11.574;2023-04-05T01:35:15;95800.50;;;-5.55;100.00
27429;BME280;14881;48.092;11.574;2023-04-05T01:37:48;95796.81;;;-5.54;100.00
27429;BME280;14881;48.092;11.574;2023-04-05T01:40:18;95796.28;;;-5.49;100.00
27429;BME280;14881;48.092;11.574;2023-04-05T01:42:46;95789.34;;;-5.50;100.00
27429;BME280;14881;48.092;11.574;2023-04-05T01:45:15;95787.88;;;-5.53;100.00
27429;BME280;14881;48.092;11.574;2023-04-05T01:47:43;95789.28;;;-5.57;100.00
27429;BME280;14881;48.092;11.574;2023-04-05T01:50:11;95787.63;;;-5.58;100.00
27429;BME280;14881;48.092;11.574;2023-04-05T01:52:38;95780.94;;;-5.54;100.00
27429;BME280;14881;48.092;11.574;2023-04-05T01:55:07;95784.88;;;-5.65;100.00
27429;BME280;14881;48.092;11.574;2023-04-05T01:57:35;95773.78;;;-5.60;100.00
27429;BME280;14881;48.092;11.574;2023-04-05T02:00:03;95779.25;;;-5.62;100.00
27429;BME280;14881;48.092;11.574;2023-04-05T02:02:32;95780.41;;;-5.64;100.00
27429;BME280;14881;48.092;11.574;2023-04-05T02:05:00;95770.56;;;-5.70;100.00
27429;BME280;14881;48.092;11.574;2023-04-05T02:07:27;95769.03;;;-5.79;100.00
27429;BME280;14881;48.092;11.574;2023-04-05T02:09:55;95782.78;;;-5.84;100.00
27429;BME280;14881;48.092;11.574;2023-04-05T02:12:23;95776.03;;;-5.86;100.00
27429;BME280;14881;48.092;11.574;2023-04-05T02:14:51;95777.03;;;-5.87;100.00
27429;BME280;14881;48.092;11.574;2023-04-05T02:17:19;95772.56;;;-5.87;100.00
27429;BME280;14881;48.092;11.574;2023-04-05T02:19:48;95768.19;;;-5.80;100.00
27429;BME280;14881;48.092;11.574;2023-04-05T02:22:18;95759.53;;;-5.88;100.00
27429;BME280;14881;48.092;11.574;2023-04-05T02:24:46;95766.44;;;-5.87;100.00
27429;BME280;14881;48.092;11.574;2023-04-05T02:27:14;95766.91;;;-5.84;100.00
27429;BME280;14881;48.092;11.574;2023-04-05T02:29:42;95762.91;;;-5.80;100.00
27429;BME280;14881;48.092;11.574;2023-04-05T02:32:10;95759.63;;;-5.82;100.00
27429;BME280;14881;48.092;11.574;2023-04-05T02:34:38;95762.44;;;-5.83;100.00
27429;BME280;14881;48.092;11.574;2023-04-05T02:37:08;95753.16;;;-5.79;100.00
27429;BME280;14881;48.092;11.574;2023-04-05T02:39:35;95754.63;;;-5.77;100.00
27429;BME280;14881;48.092;11.574;2023-04-05T02:42:03;95748.88;;;-5.80;100.00
27429;BME280;14881;48.092;11.574;2023-04-05T02:44:32;95755.97;;;-5.81;100.00
27429;BME280;14881;48.092;11.574;2023-04-05T02:46:59;95747.50;;;-5.76;100.00
27429;BME280;14881;48.092;11.574;2023-04-05T02:49:27;95756.81;;;-5.80;100.00
27429;BME280;14881;48.092;11.574;2023-04-05T02:51:55;95747.41;;;-5.83;100.00
27429;BME280;14881;48.092;11.574;2023-04-05T02:54:24;95740.66;;;-5.85;100.00
27429;BME280;14881;48.092;11.574;2023-04-05T02:56:52;95749.41;;;-5.85;100.00
27429;BME280;14881;48.092;11.574;2023-04-05T02:59:23;95749.59;;;-6.01;100.00
27429;BME280;14881;48.092;11.574;2023-04-05T03:01:51;95749.53;;;-5.93;100.00
27429;BME280;14881;48.092;11.574;2023-04-05T03:04:18;95749.72;;;-5.94;100.00
27429;BME280;14881;48.092;11.574;2023-04-05T03:06:46;95760.34;;;-5.88;100.00
27429;BME280;14881;48.092;11.574;2023-04-05T03:09:16;95751.81;;;-5.90;100.00
27429;BME280;14881;48.092;11.574;2023-04-05T03:11:45;95744.13;;;-6.00;100.00
27429;BME280;14881;48.092;11.574;2023-04-05T03:14:13;95741.03;;;-6.03;100.00
27429;BME280;14881;48.092;11.574;2023-04-05T03:16:40;95741.78;;;-5.94;100.00
27429;BME280;14881;48.092;11.574;2023-04-05T03:19:08;95736.78;;;-5.89;100.00
27429;BME280;14881;48.092;11.574;2023-04-05T03:21:36;95741.25;;;-5.90;100.00
27429;BME280;14881;48.092;11.574;2023-04-05T03:24:05;95732.03;;;-5.94;100.00
27429;BME280;14881;48.092;11.574;2023-04-05T03:26:33;95739.59;;;-5.91;100.00
27429;BME280;14881;48.092;11.574;2023-04-05T03:29:02;95737.50;;;-5.95;100.00
27429;BME280;14881;48.092;11.574;2023-04-05T03:31:30;95741.97;;;-5.96;100.00
27429;BME280;14881;48.092;11.574;2023-04-05T03:33:58;95738.03;;;-6.00;100.00
27429;BME280;14881;48.092;11.574;2023-04-05T03:36:26;95745.97;;;-6.00;100.00
27429;BME280;14881;48.092;11.574;2023-04-05T03:39:12;95733.66;;;-6.08;100.00
27429;BME280;14881;48.092;11.574;2023-04-05T03:41:40;95735.50;;;-6.08;100.00
27429;BME280;14881;48.092;11.574;2023-04-05T03:44:09;95737.66;;;-6.12;100.00
27429;BME280;14881;48.092;11.574;2023-04-05T03:46:37;95731.44;;;-6.19;100.00
27429;BME280;14881;48.092;11.574;2023-04-05T03:49:05;95730.44;;;-6.18;100.00
27429;BME280;14881;48.092;11.574;2023-04-05T03:51:32;95730.97;;;-6.22;100.00
27429;BME280;14881;48.092;11.574;2023-04-05T03:54:00;95728.56;;;-6.24;100.00
27429;BME280;14881;48.092;11.574;2023-04-05T03:56:28;95735.84;;;-6.26;100.00
27429;BME280;14881;48.092;11.574;2023-04-05T03:58:55;95740.28;;;-6.26;100.00
27429;BME280;14881;48.092;11.574;2023-04-05T04:01:25;95738.81;;;-6.29;100.00
27429;BME280;14881;48.092;11.574;2023-04-05T04:03:52;95740.13;;;-6.25;100.00
27429;BME280;14881;48.092;11.574;2023-04-05T04:06:20;95737.00;;;-6.28;100.00
27429;BME280;14881;48.092;11.574;2023-04-05T04:08:48;95736.19;;;-6.29;100.00
27429;BME280;14881;48.092;11.574;2023-04-05T04:11:16;95730.59;;;-6.34;100.00
27429;BME280;14881;48.092;11.574;2023-04-05T04:13:43;95735.81;;;-6.41;100.00
27429;BME280;14881;48.092;11.574;2023-04-05T04:16:11;95732.13;;;-6.40;100.00
27429;BME280;14881;48.092;11.574;2023-04-05T04:18:40;95731.69;;;-6.43;100.00
27429;BME280;14881;48.092;11.574;2023-04-05T04:21:17;95731.75;;;-6.51;100.00
27429;BME280;14881;48.092;11.574;2023-04-05T04:23:46;95724.66;;;-6.51;100.00
27429;BME280;14881;48.092;11.574;2023-04-05T04:26:15;95728.94;;;-6.50;100.00
27429;BME280;14881;48.092;11.574;2023-04-05T04:28:54;95732.94;;;-6.54;100.00
27429;BME280;14881;48.092;11.574;2023-04-05T04:31:22;95734.75;;;-6.54;100.00
27429;BME280;14881;48.092;11.574;2023-04-05T04:33:51;95731.03;;;-6.60;100.00
27429;BME280;14881;48.092;11.574;2023-04-05T04:36:20;95735.56;;;-6.54;100.00
27429;BME280;14881;48.092;11.574;2023-04-05T04:39:00;95745.22;;;-6.61;100.00
27429;BME280;14881;48.092;11.574;2023-04-05T04:41:30;95738.28;;;-6.62;100.00
27429;BME280;14881;48.092;11.574;2023-04-05T04:43:59;95732.84;;;-6.60;100.00
27429;BME280;14881;48.092;11.574;2023-04-05T04:46:28;95739.94;;;-6.61;100.00
27429;BME280;14881;48.092;11.574;2023-04-05T04:49:01;95741.59;;;-6.60;100.00
27429;BME280;14881;48.092;11.574;2023-04-05T04:51:31;95739.13;;;-6.61;100.00
27429;BME280;14881;48.092;11.574;2023-04-05T04:53:59;95735.47;;;-6.60;100.00
27429;BME280;14881;48.092;11.574;2023-04-05T04:56:26;95738.94;;;-6.60;100.00
27429;BME280;14881;48.092;11.574;2023-04-05T04:58:54;95742.84;;;-6.56;100.00
27429;BME280;14881;48.092;11.574;2023-04-05T05:01:22;95740.84;;;-6.54;100.00
27429;BME280;14881;48.092;11.574;2023-04-05T05:03:52;95738.78;;;-6.58;100.00
27429;BME280;14881;48.092;11.574;2023-04-05T05:06:21;95732.03;;;-6.61;100.00
27429;BME280;14881;48.092;11.574;2023-04-05T05:08:48;95737.56;;;-6.56;100.00
27429;BME280;14881;48.092;11.574;2023-04-05T05:11:19;95741.31;;;-6.50;100.00
27429;BME280;14881;48.092;11.574;2023-04-05T05:13:47;95742.31;;;-6.51;100.00
27429;BME280;14881;48.092;11.574;2023-04-05T05:16:18;95741.78;;;-6.47;100.00
27429;BME280;14881;48.092;11.574;2023-04-05T05:18:47;95741.28;;;-6.42;100.00
27429;BME280;14881;48.092;11.574;2023-04-05T05:21:16;95736.41;;;-6.39;100.00
27429;BME280;14881;48.092;11.574;2023-04-05T05:23:45;95739.72;;;-6.37;100.00
27429;BME280;14881;48.092;11.574;2023-04-05T05:26:14;95735.00;;;-6.26;100.00
27429;BME280;14881;48.092;11.574;2023-04-05T05:28:41;95732.00;;;-6.23;100.00
27429;BME280;14881;48.092;11.574;2023-04-05T05:31:11;95733.28;;;-6.19;100.00
27429;BME280;14881;48.092;11.574;2023-04-05T05:33:39;95733.91;;;-6.17;100.00
27429;BME280;14881;48.092;11.574;2023-04-05T05:36:07;95735.50;;;-6.08;100.00
27429;BME280;14881;48.092;11.574;2023-04-05T05:38:35;95739.03;;;-6.01;100.00
27429;BME280;14881;48.092;11.574;2023-04-05T05:41:04;95741.44;;;-5.91;100.00
27429;BME280;14881;48.092;11.574;2023-04-05T05:43:32;95739.66;;;-5.84;100.00
27429;BME280;14881;48.092;11.574;2023-04-05T05:46:00;95742.66;;;-5.73;100.00
27429;BME280;14881;48.092;11.574;2023-04-05T05:48:28;95741.56;;;-5.64;100.00
27429;BME280;14881;48.092;11.574;2023-04-05T05:50:56;95755.53;;;-5.55;100.00
27429;BME280;14881;48.092;11.574;2023-04-05T05:53:35;95750.13;;;-5.47;100.00
27429;BME280;14881;48.092;11.574;2023-04-05T05:56:05;95749.84;;;-5.37;100.00
27429;BME280;14881;48.092;11.574;2023-04-05T05:58:33;95755.84;;;-5.29;100.00
27429;BME280;14881;48.092;11.574;2023-04-05T06:01:00;95747.41;;;-5.17;100.00
27429;BME280;14881;48.092;11.574;2023-04-05T06:03:29;95752.31;;;-5.00;100.00
27429;BME280;14881;48.092;11.574;2023-04-05T06:05:58;95744.88;;;-4.89;100.00
27429;BME280;14881;48.092;11.574;2023-04-05T06:08:28;95743.56;;;-4.79;100.00
27429;BME280;14881;48.092;11.574;2023-04-05T06:10:57;95755.50;;;-4.68;100.00
27429;BME280;14881;48.092;11.574;2023-04-05T06:13:26;95747.22;;;-4.59;100.00
27429;BME280;14881;48.092;11.574;2023-04-05T06:15:53;95753.66;;;-4.46;100.00
27429;BME280;14881;48.092;11.574;2023-04-05T06:18:21;95752.38;;;-4.29;100.00
27429;BME280;14881;48.092;11.574;2023-04-05T06:20:49;95756.56;;;-4.13;100.00
27429;BME280;14881;48.092;11.574;2023-04-05T06:23:17;95760.19;;;-3.93;100.00
27429;BME280;14881;48.092;11.574;2023-04-05T06:25:44;95759.72;;;-3.75;100.00
27429;BME280;14881;48.092;11.574;2023-04-05T06:28:12;95753.06;;;-3.58;100.00
27429;BME280;14881;48.092;11.574;2023-04-05T06:30:42;95762.59;;;-3.36;100.00
27429;BME280;14881;48.092;11.574;2023-04-05T06:33:10;95752.25;;;-3.18;100.00
27429;BME280;14881;48.092;11.574;2023-04-05T06:35:38;95748.25;;;-3.00;100.00
27429;BME280;14881;48.092;11.574;2023-04-05T06:38:06;95745.03;;;-2.76;100.00
27429;BME280;14881;48.092;11.574;2023-04-05T06:40:34;95739.13;;;-2.65;100.00
27429;BME280;14881;48.092;11.574;2023-04-05T06:43:02;95736.91;;;-2.48;100.00
27429;BME280;14881;48.092;11.574;2023-04-05T06:45:30;95738.78;;;-2.29;100.00
27429;BME280;14881;48.092;11.574;2023-04-05T06:47:59;95735.50;;;-2.18;100.00
27429;BME280;14881;48.092;11.574;2023-04-05T06:50:27;95733.22;;;-2.01;100.00
27429;BME280;14881;48.092;11.574;2023-04-05T06:52:55;95732.19;;;-1.87;100.00
27429;BME280;14881;48.092;11.574;2023-04-05T06:55:23;95731.16;;;-1.72;100.00
27429;BME280;14881;48.092;11.574;2023-04-05T06:57:51;95724.59;;;-1.57;100.00
27429;BME280;14881;48.092;11.574;2023-04-05T07:00:19;95724.56;;;-1.50;100.00
27429;BME280;14881;48.092;11.574;2023-04-05T07:02:47;95720.19;;;-1.38;100.00
27429;BME280;14881;48.092;11.574;2023-04-05T07:05:16;95717.31;;;-1.30;100.00
27429;BME280;14881;48.092;11.574;2023-04-05T07:07:44;95713.56;;;-1.16;100.00
27429;BME280;14881;48.092;11.574;2023-04-05T07:10:14;95717.25;;;-1.10;100.00
27429;BME280;14881;48.092;11.574;2023-04-05T07:12:41;95718.81;;;-0.96;100.00
27429;BME280;14881;48.092;11.574;2023-04-05T07:15:10;95715.91;;;-0.88;100.00
27429;BME280;14881;48.092;11.574;2023-04-05T07:17:38;95713.38;;;-0.76;100.00
27429;BME280;14881;48.092;11.574;2023-04-05T07:20:06;95715.53;;;-0.60;100.00
27429;BME280;14881;48.092;11.574;2023-04-05T07:22:36;95711.53;;;-0.44;100.00
27429;BME280;14881;48.092;11.574;2023-04-05T07:25:05;95710.78;;;-0.26;100.00
27429;BME280;14881;48.092;11.574;2023-04-05T07:27:34;95712.53;;;-0.14;100.00
27429;BME280;14881;48.092;11.574;2023-04-05T07:30:03;95712.81;;;0.03;100.00
27429;BME280;14881;48.092;11.574;2023-04-05T07:32:33;95717.66;;;0.13;100.00
27429;BME280;14881;48.092;11.574;2023-04-05T07:35:01;95718.38;;;0.26;100.00
27429;BME280;14881;48.092;11.574;2023-04-05T07:37:29;95715.56;;;0.40;100.00
27429;BME280;14881;48.092;11.574;2023-04-05T07:39:58;95720.75;;;0.53;100.00
27429;BME280;14881;48.092;11.574;2023-04-05T07:42:26;95717.38;;;0.64;100.00
27429;BME280;14881;48.092;11.574;2023-04-05T07:44:54;95722.41;;;0.72;100.00
27429;BME280;14881;48.092;11.574;2023-04-05T07:47:22;95719.94;;;0.89;100.00
27429;BME280;14881;48.092;11.574;2023-04-05T07:49:50;95717.50;;;1.05;100.00
27429;BME280;14881;48.092;11.574;2023-04-05T07:52:17;95719.00;;;1.01;100.00
27429;BME280;14881;48.092;11.574;2023-04-05T07:54:45;95723.06;;;1.04;100.00
27429;BME280;14881;48.092;11.574;2023-04-05T07:57:16;95719.28;;;1.12;100.00
27429;BME280;14881;48.092;11.574;2023-04-05T07:59:44;95720.94;;;1.24;100.00
27429;BME280;14881;48.092;11.574;2023-04-05T08:02:13;95729.06;;;1.36;100.00
27429;BME280;14881;48.092;11.574;2023-04-05T08:04:41;95719.78;;;1.50;100.00
27429;BME280;14881;48.092;11.574;2023-04-05T08:07:09;95720.91;;;1.72;100.00
27429;BME280;14881;48.092;11.574;2023-04-05T08:09:48;95718.13;;;1.91;100.00
27429;BME280;14881;48.092;11.574;2023-04-05T08:12:17;95719.34;;;2.06;100.00
27429;BME280;14881;48.092;11.574;2023-04-05T08:14:45;95712.38;;;2.17;100.00
27429;BME280;14881;48.092;11.574;2023-04-05T08:17:12;95716.31;;;2.26;100.00
27429;BME280;14881;48.092;11.574;2023-04-05T08:19:41;95716.69;;;2.41;100.00
27429;BME280;14881;48.092;11.574;2023-04-05T08:22:09;95712.38;;;2.52;100.00
27429;BME280;14881;48.092;11.574;2023-04-05T08:24:37;95707.47;;;2.72;100.00
27429;BME280;14881;48.092;11.574;2023-04-05T08:27:05;95708.94;;;2.80;100.00
27429;BME280;14881;48.092;11.574;2023-04-05T08:29:34;95714.19;;;2.87;100.00
27429;BME280;14881;48.092;11.574;2023-04-05T08:32:02;95717.91;;;2.97;100.00
27429;BME280;14881;48.092;11.574;2023-04-05T08:34:30;95712.72;;;3.19;100.00
27429;BME280;14881;48.092;11.574;2023-04-05T08:36:58;95715.88;;;3.28;100.00
27429;BME280;14881;48.092;11.574;2023-04-05T08:39:26;95708.16;;;3.48;100.00
27429;BME280;14881;48.092;11.574;2023-04-05T08:42:02;95707.66;;;3.63;100.00
27429;BME280;14881;48.092;11.574;2023-04-05T08:44:30;95706.69;;;3.69;100.00
27429;BME280;14881;48.092;11.574;2023-04-05T08:47:00;95706.22;;;3.89;100.00
27429;BME280;14881;48.092;11.574;2023-04-05T08:49:28;95711.53;;;4.00;98.23
27429;BME280;14881;48.092;11.574;2023-04-05T08:51:59;95710.66;;;4.11;95.82
27429;BME280;14881;48.092;11.574;2023-04-05T08:54:27;95709.28;;;4.26;90.91
27429;BME280;14881;48.092;11.574;2023-04-05T08:56:56;95703.22;;;4.52;88.44
27429;BME280;14881;48.092;11.574;2023-04-05T08:59:25;95700.78;;;4.89;91.13
27429;BME280;14881;48.092;11.574;2023-04-05T09:01:54;95705.53;;;5.04;83.24
27429;BME280;14881;48.092;11.574;2023-04-05T09:04:28;95699.91;;;5.27;79.16
27429;BME280;14881;48.092;11.574;2023-04-05T09:07:00;95691.91;;;5.59;81.69
27429;BME280;14881;48.092;11.574;2023-04-05T09:09:31;95699.16;;;5.53;71.09
27429;BME280;14881;48.092;11.574;2023-04-05T09:12:02;95700.66;;;5.44;69.45
27429;BME280;14881;48.092;11.574;2023-04-05T09:14:32;95704.31;;;5.33;68.36
27429;BME280;14881;48.092;11.574;2023-04-05T09:17:01;95695.19;;;5.39;64.85
27429;BME280;14881;48.092;11.574;2023-04-05T09:19:30;95702.84;;;5.47;70.93
27429;BME280;14881;48.092;11.574;2023-04-05T09:22:00;95697.47;;;5.74;69.31
27429;BME280;14881;48.092;11.574;2023-04-05T09:24:33;95695.31;;;5.98;63.98
27429;BME280;14881;48.092;11.574;2023-04-05T09:27:06;95699.53;;;5.89;63.93
27429;BME280;14881;48.092;11.574;2023-04-05T09:29:35;95697.13;;;5.66;59.64
27429;BME280;14881;48.092;11.574;2023-04-05T09:32:04;95693.09;;;5.68;58.86
27429;BME280;14881;48.092;11.574;2023-04-05T09:34:34;95693.75;;;6.02;62.58
27429;BME280;14881;48.092;11.574;2023-04-05T09:37:11;95693.50;;;6.09;61.23
27429;BME280;14881;48.092;11.574;2023-04-05T09:39:40;95685.78;;;6.17;58.65
27429;BME280;14881;48.092;11.574;2023-04-05T09:42:10;95689.97;;;6.35;58.44
27429;BME280;14881;48.092;11.574;2023-04-05T09:44:48;95684.13;;;6.16;57.85
27429;BME280;14881;48.092;11.574;2023-04-05T09:47:17;95678.63;;;6.01;57.28
27429;BME280;14881;48.092;11.574;2023-04-05T09:49:46;95689.09;;;5.98;58.17
27429;BME280;14881;48.092;11.574;2023-04-05T09:52:18;95694.56;;;6.03;56.45
27429;BME280;14881;48.092;11.574;2023-04-05T09:54:55;95690.81;;;5.82;57.73
27429;BME280;14881;48.092;11.574;2023-04-05T09:57:24;95685.78;;;5.64;59.13
27429;BME280;14881;48.092;11.574;2023-04-05T09:59:53;95687.66;;;5.63;62.06
27429;BME280;14881;48.092;11.574;2023-04-05T10:02:22;95692.22;;;5.63;64.59
27429;BME280;14881;48.092;11.574;2023-04-05T10:04:51;95686.84;;;5.63;63.05
27429;BME280;14881;48.092;11.574;2023-04-05T10:07:19;95680.28;;;5.53;62.32
27429;BME280;14881;48.092;11.574;2023-04-05T10:09:47;95688.97;;;5.34;59.54
27429;BME280;14881;48.092;11.574;2023-04-05T10:12:23;95682.28;;;5.41;60.22
27429;BME280;14881;48.092;11.574;2023-04-05T10:14:52;95684.00;;;6.01;65.48
27429;BME280;14881;48.092;11.574;2023-04-05T10:17:23;95688.09;;;6.41;59.94
27429;BME280;14881;48.092;11.574;2023-04-05T10:20:03;95677.19;;;6.62;55.83
27429;BME280;14881;48.092;11.574;2023-04-05T10:22:35;95673.81;;;6.82;53.82
27429;BME280;14881;48.092;11.574;2023-04-05T10:25:11;95667.25;;;7.20;56.80
27429;BME280;14881;48.092;11.574;2023-04-05T10:27:45;95670.91;;;7.82;54.17
27429;BME280;14881;48.092;11.574;2023-04-05T10:30:15;95670.69;;;8.24;52.70
27429;BME280;14881;48.092;11.574;2023-04-05T10:32:59;95662.28;;;8.71;52.46
27429;BME280;14881;48.092;11.574;2023-04-05T10:35:38;95666.25;;;9.09;48.86
27429;BME280;14881;48.092;11.574;2023-04-05T10:38:19;95659.47;;;9.17;47.43
27429;BME280;14881;48.092;11.574;2023-04-05T10:40:53;95665.03;;;8.46;45.10
27429;BME280;14881;48.092;11.574;2023-04-05T10:43:23;95656.22;;;9.15;47.09
27429;BME280;14881;48.092;11.574;2023-04-05T10:45:53;95653.75;;;9.18;46.72
27429;BME280;14881;48.092;11.574;2023-04-05T10:48:31;95648.44;;;10.01;50.33
27429;BME280;14881;48.092;11.574;2023-04-05T10:51:02;95646.78;;;10.39;47.54
27429;BME280;14881;48.092;11.574;2023-04-05T10:53:30;95648.72;;;10.39;43.02
27429;BME280;14881;48.092;11.574;2023-04-05T10:56:00;95651.94;;;10.41;43.64
27429;BME280;14881;48.092;11.574;2023-04-05T10:58:28;95646.72;;;10.50;47.05
27429;BME280;14881;48.092;11.574;2023-04-05T11:00:58;95646.78;;;10.73;42.59
27429;BME280;14881;48.092;11.574;2023-04-05T11:03:45;95641.59;;;11.25;43.99
27429;BME280;14881;48.092;11.574;2023-04-05T11:06:19;95638.13;;;11.62;44.68
27429;BME280;14881;48.092;11.574;2023-04-05T11:08:49;95636.16;;;11.01;43.11
27429;BME280;14881;48.092;11.574;2023-04-05T11:11:17;95630.81;;;11.38;40.87
27429;BME280;14881;48.092;11.574;2023-04-05T11:13:50;95626.25;;;11.34;39.76
27429;BME280;14881;48.092;11.574;2023-04-05T11:16:18;95622.16;;;10.60;39.45
27429;BME280;14881;48.092;11.574;2023-04-05T11:18:49;95616.19;;;11.10;41.45
27429;BME280;14881;48.092;11.574;2023-04-05T11:21:23;95615.59;;;11.37;40.80
27429;BME280;14881;48.092;11.574;2023-04-05T11:24:03;95621.81;;;11.19;40.95
27429;BME280;14881;48.092;11.574;2023-04-05T11:26:51;95630.19;;;11.23;38.63
27429;BME280;14881;48.092;11.574;2023-04-05T11:29:46;95621.56;;;11.39;38.53
27429;BME280;14881;48.092;11.574;2023-04-05T11:32:17;95618.59;;;11.78;38.66
27429;BME280;14881;48.092;11.574;2023-04-05T11:34:57;95618.16;;;11.90;37.51
27429;BME280;14881;48.092;11.574;2023-04-05T11:37:54;95623.53;;;10.86;40.25
27429;BME280;14881;48.092;11.574;2023-04-05T11:40:24;95624.19;;;10.15;40.58
27429;BME280;14881;48.092;11.574;2023-04-05T11:43:00;95626.41;;;9.69;39.68
27429;BME280;14881;48.092;11.574;2023-04-05T11:45:29;95618.81;;;9.66;40.44
27429;BME280;14881;48.092;11.574;2023-04-05T11:47:59;95614.81;;;10.36;41.83
27429;BME280;14881;48.092;11.574;2023-04-05T11:50:27;95611.41;;;10.50;41.88
27429;BME280;14881;48.092;11.574;2023-04-05T11:53:12;95599.28;;;11.37;42.14
27429;BME280;14881;48.092;11.574;2023-04-05T11:55:42;95611.09;;;11.28;38.38
27429;BME280;14881;48.092;11.574;2023-04-05T11:58:11;95612.47;;;10.77;38.00
27429;BME280;14881;48.092;11.574;2023-04-05T12:00:39;95607.91;;;9.76;42.17
27429;BME280;14881;48.092;11.574;2023-04-05T12:03:10;95611.59;;;9.90;42.33
27429;BME280;14881;48.092;11.574;2023-04-05T12:05:46;95611.69;;;9.31;42.80
27429;BME280;14881;48.092;11.574;2023-04-05T12:08:15;95616.34;;;9.20;44.31
27429;BME280;14881;48.092;11.574;2023-04-05T12:10:43;95618.84;;;9.01;45.10
27429;BME280;14881;48.092;11.574;2023-04-05T12:13:11;95616.84;;;8.43;43.56
27429;BME280;14881;48.092;11.574;2023-04-05T12:15:39;95619.28;;;7.88;45.70
27429;BME280;14881;48.092;11.574;2023-04-05T12:18:13;95618.13;;;7.44;46.35
27429;BME280;14881;48.092;11.574;2023-04-05T12:20:41;95614.56;;;7.23;46.49
27429;BME280;14881;48.092;11.574;2023-04-05T12:23:11;95608.91;;;7.24;49.60
27429;BME280;14881;48.092;11.574;2023-04-05T12:25:40;95603.03;;;8.03;48.19
27429;BME280;14881;48.092;11.574;2023-04-05T12:28:08;95596.25;;;8.57;46.59
27429;BME280;14881;48.092;11.574;2023-04-05T12:30:47;95603.59;;;7.90;45.17
27429;BME280;14881;48.092;11.574;2023-04-05T12:33:24;95601.41;;;7.97;47.30
27429;BME280;14881;48.092;11.574;2023-04-05T12:35:52;95608.19;;;8.25;50.31
27429;BME280;14881;48.092;11.574;2023-04-05T12:38:24;95600.81;;;8.66;46.96
27429;BME280;14881;48.092;11.574;2023-04-05T12:40:55;95594.63;;;8.61;46.25
27429;BME280;14881;48.092;11.574;2023-04-05T12:43:25;95593.78;;;9.35;47.47
27429;BME280;14881;48.092;11.574;2023-04-05T12:45:53;95598.66;;;9.77;47.04
27429;BME280;14881;48.092;11.574;2023-04-05T12:48:22;95590.00;;;10.09;45.72
27429;BME280;14881;48.092;11.574;2023-04-05T12:50:51;95591.97;;;10.37;43.54
27429;BME280;14881;48.092;11.574;2023-04-05T12:53:21;95581.78;;;10.77;44.22
27429;BME280;14881;48.092;11.574;2023-04-05T12:55:51;95586.63;;;10.80;42.79
27429;BME280;14881;48.092;11.574;2023-04-05T12:58:22;95581.19;;;10.27;41.69
27429;BME280;14881;48.092;11.574;2023-04-05T13:00:58;95586.66;;;10.22;41.83